Warning: Javascript must be enabled to use all the features on this page!


Page Loading - Please Wait...

* We've detected you're using a mobile device. Find our Next Generation Station Page here.
Click to hideNews Bulletins

Peak Streamflow for the Nation

USGS 11158600 SAN BENITO R A HWY 156 NR HOLLISTER CA

San Benito County, California
Hydrologic Unit Code 18060002
Latitude  36°51'07", Longitude 121°25'44" NAD27
Drainage area 607  square miles
Output formats
Table
Graph
Tab-separated file
peakfq (watstore) format
Reselect output format
Water
Year
Date Gage
Height
(feet)
Stream-
flow
(cfs)
1971 1970-12-22 4.23 514
1972 1971-12-28   300
1973 1973-02-11 9.18 8,030
1974 1974-04-02 5.98 2,080
1975 1975-03-07 7.27 3,430
1976 1975-10-11 2.71 49.0
1977 1976-10-01 2.13 0.01
1978 1978-02-09 10.23 5,460
1979 1979-02-21 5.09 781
1980 1980-01-14 6.90 2,550
1981 1981-03-20 5.48 93.0
1982 1982-02-16 9.00 1,700
1983 1983-03-01 11.97 13,900
1984 1983-12-25 5.42 840
1985 1985-03-27 5.67 103
1986 1986-03-15 7.27 2,930
1987 1987-02-14 3.13 209
1988 1988-09-05 3.04 33.0
1989 1989-09-30 2.49 6.80
1990 1989-10-11 2.65 13.0
1991 1991-03-27 3.34 152
1992 1992-02-13 4.67 676
1993 1993-02-20 6.37 1,960
1994 1994-02-20 3.93 334
1995 1995-03-10 13.30 16,700
1996 1996-02-01 6.23 1,930
1997 1997-01-26 9.35 6,850
1998 1998-02-03 13.48 34,500
1999 1999-02-09 3.06 1,640
2000 2000-02-23 5.28 470
2001 2001-03-05 5.37 334
2002 2002-05-06 5.50 3759
2003 2002-12-20 5.23 216
2004 2004-02-27 6.07 382
2005 2005-03-05 7.97 2,330
2006 2006-04-06 7.21 2,010
2007 2007-09-22 2.06 1.70
2008 2008-02-04 5.04 248
2009 2009-02-06 4.35 104
2010 2010-03-04 5.58 412
2011 2011-03-21 7.99 1,750
2012 2012-04-13 4.23 89.0
2013 2012-12-02 3.96 70.0
2014 2014   0.00Bm
2015 2014-12-11 5.00 215
2016 2016-03-14 5.46 334
2017 2017-02-20 9.91 3,350
2018 2018-03-24 4.08 69.2
2019 2019-02-15 8.14 1,370
2020 2019-12-06 3.512 27.5
2021 2021-01-28 6.73 682
?
  Peak Gage-Height Qualification Codes.
?
  Peak Streamflow Qualification Codes.